Weather at Sidi Ifni Xx Airport

Public forecast

Using degrees Celsius for public forecast. Weather courtesy of forecast.io.

Closest aviation weather report (METAR) to Sidi Ifni Xx Airport

Report is more than 6 hours old.

Closest report is Inezgane Airport, 69.5 nm (128.7 km) NNE. Retrieved 2020/07/24 10:00 UTC (4 months ago):

GMAA 241000Z 26007KT 5000 SCT013 SCT016 23/21 Q1013 NOSIG B2+3

Aviation forecast (TAF) for Sidi Ifni Xx Airport

Forecast is more than 12 hours old.

Retrieved 2017/11/16 18:00 UTC (3 years ago):

TAF GMMF 161700Z 1618/1724 02008KT CAVOK BECMG 1620/1624 10004KT 8000 NSC PROB30 TEMPO 1702/1707 3000 BR BKN010